sensor_id;sensor_type;location;lat;lon;timestamp;P1;durP1;ratioP1;P2;durP2;ratioP2
568;SDS011;269;48.884;9.192;2022-08-01T00:01:13;3.17;;;2.50;;
568;SDS011;269;48.884;9.192;2022-08-01T00:03:40;2.50;;;2.30;;
568;SDS011;269;48.884;9.192;2022-08-01T00:06:08;2.77;;;2.57;;
568;SDS011;269;48.884;9.192;2022-08-01T00:08:35;2.53;;;2.33;;
568;SDS011;269;48.884;9.192;2022-08-01T00:11:02;2.60;;;2.40;;
568;SDS011;269;48.884;9.192;2022-08-01T00:13:30;2.47;;;2.37;;
568;SDS011;269;48.884;9.192;2022-08-01T00:16:00;4.77;;;2.73;;
568;SDS011;269;48.884;9.192;2022-08-01T00:18:27;2.93;;;2.70;;
568;SDS011;269;48.884;9.192;2022-08-01T00:20:55;3.03;;;2.83;;
568;SDS011;269;48.884;9.192;2022-08-01T00:23:23;2.70;;;2.50;;
568;SDS011;269;48.884;9.192;2022-08-01T00:25:50;2.53;;;2.40;;
568;SDS011;269;48.884;9.192;2022-08-01T00:28:18;2.80;;;2.60;;
568;SDS011;269;48.884;9.192;2022-08-01T00:30:47;3.70;;;2.47;;
568;SDS011;269;48.884;9.192;2022-08-01T00:33:15;2.70;;;2.50;;
568;SDS011;269;48.884;9.192;2022-08-01T00:35:43;2.60;;;2.40;;
568;SDS011;269;48.884;9.192;2022-08-01T00:38:10;2.70;;;2.50;;
568;SDS011;269;48.884;9.192;2022-08-01T00:40:37;2.60;;;2.40;;
568;SDS011;269;48.884;9.192;2022-08-01T00:43:05;2.90;;;2.70;;
568;SDS011;269;48.884;9.192;2022-08-01T00:45:32;4.43;;;2.90;;
568;SDS011;269;48.884;9.192;2022-08-01T00:48:00;2.50;;;2.30;;
568;SDS011;269;48.884;9.192;2022-08-01T00:50:27;3.10;;;2.80;;
568;SDS011;269;48.884;9.192;2022-08-01T00:52:54;2.60;;;2.40;;
568;SDS011;269;48.884;9.192;2022-08-01T00:55:26;3.33;;;3.00;;
568;SDS011;269;48.884;9.192;2022-08-01T00:57:55;3.30;;;2.90;;
568;SDS011;269;48.884;9.192;2022-08-01T01:00:23;2.90;;;2.30;;
568;SDS011;269;48.884;9.192;2022-08-01T01:02:50;2.87;;;2.43;;
568;SDS011;269;48.884;9.192;2022-08-01T01:05:19;3.00;;;2.80;;
568;SDS011;269;48.884;9.192;2022-08-01T01:07:48;3.07;;;2.87;;
568;SDS011;269;48.884;9.192;2022-08-01T01:10:25;3.00;;;2.70;;
568;SDS011;269;48.884;9.192;2022-08-01T01:13:01;3.10;;;2.90;;
568;SDS011;269;48.884;9.192;2022-08-01T01:15:33;3.93;;;2.77;;
568;SDS011;269;48.884;9.192;2022-08-01T01:18:09;3.10;;;2.90;;
568;SDS011;269;48.884;9.192;2022-08-01T01:20:41;2.90;;;2.70;;
568;SDS011;269;48.884;9.192;2022-08-01T01:23:24;2.87;;;2.67;;
568;SDS011;269;48.884;9.192;2022-08-01T01:26:04;3.10;;;2.90;;
568;SDS011;269;48.884;9.192;2022-08-01T01:29:05;2.70;;;2.50;;
568;SDS011;269;48.884;9.192;2022-08-01T01:31:40;2.90;;;2.70;;
568;SDS011;269;48.884;9.192;2022-08-01T01:34:12;2.70;;;2.50;;
568;SDS011;269;48.884;9.192;2022-08-01T01:36:41;3.10;;;2.90;;
568;SDS011;269;48.884;9.192;2022-08-01T01:39:11;2.97;;;2.77;;
568;SDS011;269;48.884;9.192;2022-08-01T01:41:40;3.00;;;2.80;;
568;SDS011;269;48.884;9.192;2022-08-01T01:44:11;3.73;;;3.00;;
568;SDS011;269;48.884;9.192;2022-08-01T01:46:39;3.30;;;2.60;;
568;SDS011;269;48.884;9.192;2022-08-01T01:49:07;2.80;;;2.60;;
568;SDS011;269;48.884;9.192;2022-08-01T01:51:36;2.90;;;2.70;;
568;SDS011;269;48.884;9.192;2022-08-01T01:54:05;3.13;;;2.70;;
568;SDS011;269;48.884;9.192;2022-08-01T01:56:34;2.83;;;2.60;;
568;SDS011;269;48.884;9.192;2022-08-01T01:59:15;3.10;;;2.80;;
568;SDS011;269;48.884;9.192;2022-08-01T02:01:46;3.10;;;2.90;;
568;SDS011;269;48.884;9.192;2022-08-01T02:04:14;3.03;;;2.70;;
568;SDS011;269;48.884;9.192;2022-08-01T02:06:43;2.93;;;2.63;;
568;SDS011;269;48.884;9.192;2022-08-01T02:09:14;3.47;;;3.17;;
568;SDS011;269;48.884;9.192;2022-08-01T02:11:43;3.30;;;3.00;;
568;SDS011;269;48.884;9.192;2022-08-01T02:14:11;3.47;;;3.10;;
568;SDS011;269;48.884;9.192;2022-08-01T02:16:43;2.93;;;2.73;;
568;SDS011;269;48.884;9.192;2022-08-01T02:19:14;2.90;;;2.70;;
568;SDS011;269;48.884;9.192;2022-08-01T02:21:44;3.80;;;2.80;;
568;SDS011;269;48.884;9.192;2022-08-01T02:24:14;3.27;;;2.83;;
568;SDS011;269;48.884;9.192;2022-08-01T02:26:47;3.00;;;2.80;;
568;SDS011;269;48.884;9.192;2022-08-01T02:29:19;3.10;;;2.80;;
568;SDS011;269;48.884;9.192;2022-08-01T02:31:52;3.07;;;2.87;;
568;SDS011;269;48.884;9.192;2022-08-01T02:34:21;3.10;;;2.67;;
568;SDS011;269;48.884;9.192;2022-08-01T02:36:51;2.60;;;2.40;;
568;SDS011;269;48.884;9.192;2022-08-01T02:39:21;2.97;;;2.77;;
568;SDS011;269;48.884;9.192;2022-08-01T02:41:50;3.07;;;2.87;;
568;SDS011;269;48.884;9.192;2022-08-01T02:44:23;3.40;;;3.20;;
568;SDS011;269;48.884;9.192;2022-08-01T02:46:56;2.80;;;2.60;;
568;SDS011;269;48.884;9.192;2022-08-01T02:49:28;3.10;;;2.80;;
568;SDS011;269;48.884;9.192;2022-08-01T02:51:59;3.00;;;2.80;;
568;SDS011;269;48.884;9.192;2022-08-01T02:54:27;3.13;;;2.90;;
568;SDS011;269;48.884;9.192;2022-08-01T02:56:56;2.77;;;2.57;;
568;SDS011;269;48.884;9.192;2022-08-01T02:59:27;3.00;;;2.80;;
568;SDS011;269;48.884;9.192;2022-08-01T03:01:57;3.33;;;3.13;;
568;SDS011;269;48.884;9.192;2022-08-01T03:04:27;3.30;;;3.00;;
568;SDS011;269;48.884;9.192;2022-08-01T03:06:56;3.10;;;2.90;;
568;SDS011;269;48.884;9.192;2022-08-01T03:09:24;3.00;;;2.80;;
568;SDS011;269;48.884;9.192;2022-08-01T03:11:53;3.17;;;2.90;;
568;SDS011;269;48.884;9.192;2022-08-01T03:14:24;3.00;;;2.80;;
568;SDS011;269;48.884;9.192;2022-08-01T03:16:53;3.33;;;2.97;;
568;SDS011;269;48.884;9.192;2022-08-01T03:19:23;3.17;;;2.97;;
568;SDS011;269;48.884;9.192;2022-08-01T03:21:52;3.30;;;3.00;;
568;SDS011;269;48.884;9.192;2022-08-01T03:24:23;3.10;;;2.90;;
568;SDS011;269;48.884;9.192;2022-08-01T03:26:53;3.27;;;2.87;;
568;SDS011;269;48.884;9.192;2022-08-01T03:29:25;3.27;;;2.97;;
568;SDS011;269;48.884;9.192;2022-08-01T03:31:53;3.03;;;2.73;;
568;SDS011;269;48.884;9.192;2022-08-01T03:34:21;4.10;;;3.00;;
568;SDS011;269;48.884;9.192;2022-08-01T03:36:49;3.40;;;3.10;;
568;SDS011;269;48.884;9.192;2022-08-01T03:39:22;3.50;;;3.10;;
568;SDS011;269;48.884;9.192;2022-08-01T03:41:54;3.40;;;3.10;;
568;SDS011;269;48.884;9.192;2022-08-01T03:44:26;3.50;;;3.20;;
568;SDS011;269;48.884;9.192;2022-08-01T03:46:56;3.40;;;3.10;;
568;SDS011;269;48.884;9.192;2022-08-01T03:49:28;3.17;;;2.97;;
568;SDS011;269;48.884;9.192;2022-08-01T03:51:59;3.30;;;3.10;;
568;SDS011;269;48.884;9.192;2022-08-01T03:54:30;4.60;;;2.87;;
568;SDS011;269;48.884;9.192;2022-08-01T03:56:58;3.40;;;3.10;;
568;SDS011;269;48.884;9.192;2022-08-01T03:59:27;2.87;;;2.57;;
568;SDS011;269;48.884;9.192;2022-08-01T04:01:55;3.47;;;3.27;;
568;SDS011;269;48.884;9.192;2022-08-01T04:04:23;2.83;;;2.63;;
568;SDS011;269;48.884;9.192;2022-08-01T04:06:51;2.90;;;2.70;;
568;SDS011;269;48.884;9.192;2022-08-01T04:09:21;2.97;;;2.53;;
568;SDS011;269;48.884;9.192;2022-08-01T04:11:48;3.20;;;2.90;;
568;SDS011;269;48.884;9.192;2022-08-01T04:14:15;2.93;;;2.73;;
568;SDS011;269;48.884;9.192;2022-08-01T04:16:42;2.93;;;2.73;;
568;SDS011;269;48.884;9.192;2022-08-01T04:19:09;3.43;;;2.60;;
568;SDS011;269;48.884;9.192;2022-08-01T04:21:37;3.40;;;3.10;;
568;SDS011;269;48.884;9.192;2022-08-01T04:24:06;2.80;;;2.60;;
568;SDS011;269;48.884;9.192;2022-08-01T04:26:38;3.10;;;2.80;;
568;SDS011;269;48.884;9.192;2022-08-01T04:29:08;3.10;;;2.53;;
568;SDS011;269;48.884;9.192;2022-08-01T04:31:35;2.80;;;2.60;;
568;SDS011;269;48.884;9.192;2022-08-01T04:34:05;4.03;;;3.00;;
568;SDS011;269;48.884;9.192;2022-08-01T04:36:34;2.77;;;2.47;;
568;SDS011;269;48.884;9.192;2022-08-01T04:39:03;2.73;;;2.53;;
568;SDS011;269;48.884;9.192;2022-08-01T04:41:32;2.87;;;2.50;;
568;SDS011;269;48.884;9.192;2022-08-01T04:44:02;2.60;;;2.40;;
568;SDS011;269;48.884;9.192;2022-08-01T04:46:30;3.20;;;2.50;;
568;SDS011;269;48.884;9.192;2022-08-01T04:48:59;3.10;;;2.70;;
568;SDS011;269;48.884;9.192;2022-08-01T04:51:27;2.60;;;2.40;;
568;SDS011;269;48.884;9.192;2022-08-01T04:53:54;2.90;;;2.70;;
568;SDS011;269;48.884;9.192;2022-08-01T04:56:22;2.77;;;2.57;;
568;SDS011;269;48.884;9.192;2022-08-01T04:58:50;2.47;;;2.27;;
568;SDS011;269;48.884;9.192;2022-08-01T05:01:38;2.70;;;2.50;;
568;SDS011;269;48.884;9.192;2022-08-01T05:04:05;2.87;;;2.67;;
568;SDS011;269;48.884;9.192;2022-08-01T05:06:32;3.07;;;2.87;;
568;SDS011;269;48.884;9.192;2022-08-01T05:08:59;3.00;;;2.27;;
568;SDS011;269;48.884;9.192;2022-08-01T05:11:27;3.10;;;2.40;;
568;SDS011;269;48.884;9.192;2022-08-01T05:13:54;2.80;;;2.60;;
568;SDS011;269;48.884;9.192;2022-08-01T05:16:21;2.83;;;2.50;;
568;SDS011;269;48.884;9.192;2022-08-01T05:18:50;3.10;;;2.47;;
568;SDS011;269;48.884;9.192;2022-08-01T05:21:17;2.50;;;2.40;;
568;SDS011;269;48.884;9.192;2022-08-01T05:23:44;2.83;;;2.63;;
568;SDS011;269;48.884;9.192;2022-08-01T05:26:11;2.83;;;2.63;;
568;SDS011;269;48.884;9.192;2022-08-01T05:28:39;3.00;;;2.80;;
568;SDS011;269;48.884;9.192;2022-08-01T05:31:06;2.87;;;2.67;;
568;SDS011;269;48.884;9.192;2022-08-01T05:33:33;2.67;;;2.47;;
568;SDS011;269;48.884;9.192;2022-08-01T05:36:01;2.63;;;2.40;;
568;SDS011;269;48.884;9.192;2022-08-01T05:38:28;2.60;;;2.40;;
568;SDS011;269;48.884;9.192;2022-08-01T05:40:56;4.20;;;2.73;;
568;SDS011;269;48.884;9.192;2022-08-01T05:43:23;3.07;;;2.33;;
568;SDS011;269;48.884;9.192;2022-08-01T05:45:50;2.57;;;2.30;;
568;SDS011;269;48.884;9.192;2022-08-01T05:48:17;2.80;;;2.20;;
568;SDS011;269;48.884;9.192;2022-08-01T05:50:44;2.40;;;2.23;;
568;SDS011;269;48.884;9.192;2022-08-01T05:53:14;2.50;;;2.30;;
568;SDS011;269;48.884;9.192;2022-08-01T05:55:41;2.37;;;2.17;;
568;SDS011;269;48.884;9.192;2022-08-01T05:58:08;2.70;;;2.20;;
568;SDS011;269;48.884;9.192;2022-08-01T06:00:35;2.73;;;2.50;;
568;SDS011;269;48.884;9.192;2022-08-01T06:03:03;6.17;;;3.07;;
568;SDS011;269;48.884;9.192;2022-08-01T06:05:30;2.40;;;2.20;;
568;SDS011;269;48.884;9.192;2022-08-01T06:07:57;2.10;;;1.90;;
568;SDS011;269;48.884;9.192;2022-08-01T06:10:26;3.37;;;1.97;;
568;SDS011;269;48.884;9.192;2022-08-01T06:12:53;2.27;;;2.00;;
568;SDS011;269;48.884;9.192;2022-08-01T06:15:21;2.93;;;2.00;;
568;SDS011;269;48.884;9.192;2022-08-01T06:17:50;2.50;;;2.40;;
568;SDS011;269;48.884;9.192;2022-08-01T06:20:17;2.13;;;1.80;;
568;SDS011;269;48.884;9.192;2022-08-01T06:22:44;2.20;;;2.00;;
568;SDS011;269;48.884;9.192;2022-08-01T06:25:11;2.00;;;1.90;;
568;SDS011;269;48.884;9.192;2022-08-01T06:27:39;2.20;;;2.00;;
568;SDS011;269;48.884;9.192;2022-08-01T06:30:07;3.13;;;2.13;;
568;SDS011;269;48.884;9.192;2022-08-01T06:32:34;2.17;;;2.07;;
568;SDS011;269;48.884;9.192;2022-08-01T06:35:01;1.80;;;1.70;;
568;SDS011;269;48.884;9.192;2022-08-01T06:37:29;1.97;;;1.87;;
568;SDS011;269;48.884;9.192;2022-08-01T06:39:59;2.23;;;2.03;;
568;SDS011;269;48.884;9.192;2022-08-01T14:21:52;2.50;;;1.93;;
568;SDS011;269;48.884;9.192;2022-08-01T14:24:20;2.07;;;1.97;;
568;SDS011;269;48.884;9.192;2022-08-01T14:26:47;2.23;;;2.03;;
568;SDS011;269;48.884;9.192;2022-08-01T14:29:14;2.40;;;2.20;;
568;SDS011;269;48.884;9.192;2022-08-01T14:31:41;3.00;;;2.03;;
568;SDS011;269;48.884;9.192;2022-08-01T14:34:08;2.10;;;2.00;;
568;SDS011;269;48.884;9.192;2022-08-01T14:36:35;1.90;;;1.80;;
568;SDS011;269;48.884;9.192;2022-08-01T14:39:04;2.20;;;2.00;;
568;SDS011;269;48.884;9.192;2022-08-01T14:41:32;3.00;;;2.10;;
568;SDS011;269;48.884;9.192;2022-08-01T14:43:59;2.27;;;1.97;;
568;SDS011;269;48.884;9.192;2022-08-01T14:46:26;2.13;;;1.93;;
568;SDS011;269;48.884;9.192;2022-08-01T14:48:53;2.63;;;2.13;;
568;SDS011;269;48.884;9.192;2022-08-01T14:51:20;2.40;;;2.20;;
568;SDS011;269;48.884;9.192;2022-08-01T14:53:48;2.53;;;2.33;;
568;SDS011;269;48.884;9.192;2022-08-01T14:56:16;2.07;;;1.93;;
568;SDS011;269;48.884;9.192;2022-08-01T15:37:14;2.53;;;1.83;;
568;SDS011;269;48.884;9.192;2022-08-01T15:39:42;1.93;;;1.60;;
568;SDS011;269;48.884;9.192;2022-08-01T15:42:10;1.80;;;1.70;;
568;SDS011;269;48.884;9.192;2022-08-01T15:44:38;2.07;;;1.80;;
568;SDS011;269;48.884;9.192;2022-08-01T15:47:06;1.73;;;1.63;;
568;SDS011;269;48.884;9.192;2022-08-01T15:49:34;2.13;;;1.93;;
568;SDS011;269;48.884;9.192;2022-08-01T15:52:02;2.57;;;2.37;;
568;SDS011;269;48.884;9.192;2022-08-01T15:54:31;2.07;;;1.90;;
568;SDS011;269;48.884;9.192;2022-08-01T15:56:58;1.87;;;1.77;;
568;SDS011;269;48.884;9.192;2022-08-01T15:59:25;1.80;;;1.70;;
568;SDS011;269;48.884;9.192;2022-08-01T16:01:52;2.30;;;2.03;;
568;SDS011;269;48.884;9.192;2022-08-01T16:04:19;2.13;;;1.70;;
568;SDS011;269;48.884;9.192;2022-08-01T16:06:46;1.73;;;1.30;;
568;SDS011;269;48.884;9.192;2022-08-01T16:09:14;2.17;;;1.70;;
568;SDS011;269;48.884;9.192;2022-08-01T16:11:42;2.40;;;1.60;;
568;SDS011;269;48.884;9.192;2022-08-01T16:14:09;1.90;;;1.70;;
568;SDS011;269;48.884;9.192;2022-08-01T16:16:37;3.00;;;1.60;;
568;SDS011;269;48.884;9.192;2022-08-01T16:19:04;3.10;;;1.80;;
568;SDS011;269;48.884;9.192;2022-08-01T16:21:31;3.17;;;1.90;;
568;SDS011;269;48.884;9.192;2022-08-01T16:23:58;1.73;;;1.63;;
568;SDS011;269;48.884;9.192;2022-08-01T16:26:25;1.67;;;1.57;;
568;SDS011;269;48.884;9.192;2022-08-01T16:28:54;2.50;;;1.83;;
568;SDS011;269;48.884;9.192;2022-08-01T16:31:22;2.40;;;2.20;;
568;SDS011;269;48.884;9.192;2022-08-01T16:33:49;2.30;;;2.10;;
568;SDS011;269;48.884;9.192;2022-08-01T16:36:16;2.23;;;2.03;;
568;SDS011;269;48.884;9.192;2022-08-01T16:38:43;1.60;;;1.50;;
568;SDS011;269;48.884;9.192;2022-08-01T16:41:11;1.90;;;1.70;;
568;SDS011;269;48.884;9.192;2022-08-01T16:43:38;1.60;;;1.50;;
568;SDS011;269;48.884;9.192;2022-08-01T16:46:07;1.50;;;1.40;;
568;SDS011;269;48.884;9.192;2022-08-01T16:48:35;1.70;;;1.60;;
568;SDS011;269;48.884;9.192;2022-08-01T16:51:02;2.17;;;1.97;;
568;SDS011;269;48.884;9.192;2022-08-01T16:53:29;1.90;;;1.80;;
568;SDS011;269;48.884;9.192;2022-08-01T16:55:56;1.93;;;1.43;;
568;SDS011;269;48.884;9.192;2022-08-01T16:58:23;1.70;;;1.60;;
568;SDS011;269;48.884;9.192;2022-08-01T17:00:50;1.43;;;1.33;;
568;SDS011;269;48.884;9.192;2022-08-01T17:03:19;1.47;;;1.37;;
568;SDS011;269;48.884;9.192;2022-08-01T17:05:48;3.70;;;1.93;;
568;SDS011;269;48.884;9.192;2022-08-01T17:08:16;1.60;;;1.50;;
568;SDS011;269;48.884;9.192;2022-08-01T17:10:43;1.73;;;1.57;;
568;SDS011;269;48.884;9.192;2022-08-01T17:13:10;1.60;;;1.50;;
568;SDS011;269;48.884;9.192;2022-08-01T17:15:37;1.70;;;1.50;;
568;SDS011;269;48.884;9.192;2022-08-01T17:18:04;1.40;;;1.30;;
568;SDS011;269;48.884;9.192;2022-08-01T17:20:33;1.63;;;1.53;;
568;SDS011;269;48.884;9.192;2022-08-01T17:23:01;1.80;;;1.47;;
568;SDS011;269;48.884;9.192;2022-08-01T17:25:28;1.97;;;1.60;;
568;SDS011;269;48.884;9.192;2022-08-01T17:27:55;1.60;;;1.50;;
568;SDS011;269;48.884;9.192;2022-08-01T17:30:22;1.70;;;1.60;;
568;SDS011;269;48.884;9.192;2022-08-01T17:32:50;2.47;;;2.00;;
568;SDS011;269;48.884;9.192;2022-08-01T17:35:17;1.80;;;1.70;;
568;SDS011;269;48.884;9.192;2022-08-01T17:37:45;1.93;;;1.40;;
568;SDS011;269;48.884;9.192;2022-08-01T17:40:12;1.60;;;1.50;;
568;SDS011;269;48.884;9.192;2022-08-01T17:42:40;1.50;;;1.40;;
568;SDS011;269;48.884;9.192;2022-08-01T17:45:08;1.60;;;1.50;;
568;SDS011;269;48.884;9.192;2022-08-01T17:47:36;1.57;;;1.47;;
568;SDS011;269;48.884;9.192;2022-08-01T17:50:05;2.80;;;1.50;;
568;SDS011;269;48.884;9.192;2022-08-01T17:52:35;2.40;;;1.60;;
568;SDS011;269;48.884;9.192;2022-08-01T17:55:04;1.60;;;1.50;;
568;SDS011;269;48.884;9.192;2022-08-01T17:57:31;2.70;;;2.17;;
568;SDS011;269;48.884;9.192;2022-08-01T17:59:59;1.40;;;1.30;;
568;SDS011;269;48.884;9.192;2022-08-01T18:02:26;1.47;;;1.37;;
568;SDS011;269;48.884;9.192;2022-08-01T18:04:53;2.00;;;1.33;;
568;SDS011;269;48.884;9.192;2022-08-01T18:07:20;2.50;;;1.30;;
568;SDS011;269;48.884;9.192;2022-08-01T18:09:47;1.73;;;1.30;;
568;SDS011;269;48.884;9.192;2022-08-01T18:12:16;1.53;;;1.23;;
568;SDS011;269;48.884;9.192;2022-08-01T18:14:44;1.63;;;1.53;;
568;SDS011;269;48.884;9.192;2022-08-01T18:17:11;1.60;;;1.50;;
568;SDS011;269;48.884;9.192;2022-08-01T18:19:39;1.90;;;1.53;;
568;SDS011;269;48.884;9.192;2022-08-01T18:22:07;1.60;;;1.40;;
568;SDS011;269;48.884;9.192;2022-08-01T18:24:34;1.77;;;1.50;;
568;SDS011;269;48.884;9.192;2022-08-01T18:27:01;3.63;;;1.83;;
568;SDS011;269;48.884;9.192;2022-08-01T18:29:29;1.60;;;1.50;;
568;SDS011;269;48.884;9.192;2022-08-01T18:31:56;3.10;;;1.87;;
568;SDS011;269;48.884;9.192;2022-08-01T18:34:27;2.03;;;1.83;;
568;SDS011;269;48.884;9.192;2022-08-01T18:36:55;1.93;;;1.80;;
568;SDS011;269;48.884;9.192;2022-08-01T18:39:22;1.87;;;1.63;;
568;SDS011;269;48.884;9.192;2022-08-01T18:41:49;1.60;;;1.50;;
568;SDS011;269;48.884;9.192;2022-08-01T18:44:16;1.67;;;1.57;;
568;SDS011;269;48.884;9.192;2022-08-01T18:46:45;1.93;;;1.80;;
568;SDS011;269;48.884;9.192;2022-08-01T18:49:12;2.27;;;1.63;;
568;SDS011;269;48.884;9.192;2022-08-01T18:51:39;1.60;;;1.30;;
568;SDS011;269;48.884;9.192;2022-08-01T18:54:06;1.60;;;1.50;;
568;SDS011;269;48.884;9.192;2022-08-01T18:56:33;1.97;;;1.77;;
568;SDS011;269;48.884;9.192;2022-08-01T18:59:00;1.80;;;1.70;;
568;SDS011;269;48.884;9.192;2022-08-01T19:01:27;1.97;;;1.83;;
568;SDS011;269;48.884;9.192;2022-08-01T19:03:56;2.93;;;2.30;;
568;SDS011;269;48.884;9.192;2022-08-01T19:06:23;4.03;;;2.03;;
568;SDS011;269;48.884;9.192;2022-08-01T19:08:51;1.93;;;1.40;;
568;SDS011;269;48.884;9.192;2022-08-01T19:11:19;1.50;;;1.40;;
568;SDS011;269;48.884;9.192;2022-08-01T19:13:46;2.40;;;1.50;;
568;SDS011;269;48.884;9.192;2022-08-01T19:16:13;1.40;;;1.30;;
568;SDS011;269;48.884;9.192;2022-08-01T19:18:41;1.70;;;1.53;;
568;SDS011;269;48.884;9.192;2022-08-01T19:21:10;2.00;;;1.33;;
568;SDS011;269;48.884;9.192;2022-08-01T19:23:37;1.87;;;1.40;;
568;SDS011;269;48.884;9.192;2022-08-01T19:26:23;2.13;;;1.40;;
568;SDS011;269;48.884;9.192;2022-08-01T19:28:52;1.80;;;1.70;;
568;SDS011;269;48.884;9.192;2022-08-01T19:31:24;1.40;;;1.30;;
568;SDS011;269;48.884;9.192;2022-08-01T19:33:52;1.60;;;1.50;;
568;SDS011;269;48.884;9.192;2022-08-01T19:36:21;1.40;;;1.30;;
568;SDS011;269;48.884;9.192;2022-08-01T19:38:48;2.37;;;1.40;;
568;SDS011;269;48.884;9.192;2022-08-01T19:41:16;1.70;;;1.60;;
568;SDS011;269;48.884;9.192;2022-08-01T19:43:44;1.20;;;1.10;;
568;SDS011;269;48.884;9.192;2022-08-01T19:46:12;2.37;;;1.20;;
568;SDS011;269;48.884;9.192;2022-08-01T19:48:40;4.60;;;1.63;;
568;SDS011;269;48.884;9.192;2022-08-01T19:51:09;2.07;;;1.60;;
568;SDS011;269;48.884;9.192;2022-08-01T19:53:42;3.70;;;1.27;;
568;SDS011;269;48.884;9.192;2022-08-01T19:56:16;1.77;;;1.37;;
568;SDS011;269;48.884;9.192;2022-08-01T19:58:46;1.30;;;1.13;;
568;SDS011;269;48.884;9.192;2022-08-01T20:01:17;1.13;;;1.03;;
568;SDS011;269;48.884;9.192;2022-08-01T20:03:45;2.80;;;1.20;;
568;SDS011;269;48.884;9.192;2022-08-01T20:06:14;1.40;;;1.17;;
568;SDS011;269;48.884;9.192;2022-08-01T20:08:42;1.40;;;1.30;;
568;SDS011;269;48.884;9.192;2022-08-01T20:11:10;1.30;;;1.20;;
568;SDS011;269;48.884;9.192;2022-08-01T20:13:38;1.80;;;1.50;;
568;SDS011;269;48.884;9.192;2022-08-01T20:16:05;2.23;;;1.23;;
568;SDS011;269;48.884;9.192;2022-08-01T20:18:33;1.80;;;1.13;;
568;SDS011;269;48.884;9.192;2022-08-01T20:21:00;1.83;;;1.40;;
568;SDS011;269;48.884;9.192;2022-08-01T20:23:28;1.70;;;1.20;;
568;SDS011;269;48.884;9.192;2022-08-01T20:25:58;1.20;;;1.10;;
568;SDS011;269;48.884;9.192;2022-08-01T20:28:27;1.13;;;1.03;;
568;SDS011;269;48.884;9.192;2022-08-01T20:30:55;3.13;;;1.30;;
568;SDS011;269;48.884;9.192;2022-08-01T20:33:25;1.30;;;1.20;;
568;SDS011;269;48.884;9.192;2022-08-01T20:35:53;1.87;;;1.10;;
568;SDS011;269;48.884;9.192;2022-08-01T20:38:22;1.63;;;1.30;;
568;SDS011;269;48.884;9.192;2022-08-01T20:40:50;1.87;;;1.10;;
568;SDS011;269;48.884;9.192;2022-08-01T20:43:24;2.70;;;1.20;;
568;SDS011;269;48.884;9.192;2022-08-01T20:45:52;1.67;;;1.40;;
568;SDS011;269;48.884;9.192;2022-08-01T20:48:19;1.70;;;1.27;;
568;SDS011;269;48.884;9.192;2022-08-01T20:50:48;1.10;;;1.00;;
568;SDS011;269;48.884;9.192;2022-08-01T20:53:34;1.40;;;1.30;;
568;SDS011;269;48.884;9.192;2022-08-01T20:56:05;1.20;;;1.00;;
568;SDS011;269;48.884;9.192;2022-08-01T20:58:39;2.20;;;1.30;;
568;SDS011;269;48.884;9.192;2022-08-01T21:01:20;2.03;;;1.20;;
568;SDS011;269;48.884;9.192;2022-08-01T21:03:55;1.50;;;1.00;;
568;SDS011;269;48.884;9.192;2022-08-01T21:06:35;2.20;;;1.53;;
568;SDS011;269;48.884;9.192;2022-08-01T21:09:06;2.53;;;1.30;;
568;SDS011;269;48.884;9.192;2022-08-01T21:11:38;2.00;;;1.20;;
568;SDS011;269;48.884;9.192;2022-08-01T21:14:09;2.13;;;1.20;;
568;SDS011;269;48.884;9.192;2022-08-01T21:16:42;1.80;;;1.10;;
568;SDS011;269;48.884;9.192;2022-08-01T21:19:18;1.10;;;1.00;;
568;SDS011;269;48.884;9.192;2022-08-01T21:21:59;1.50;;;1.10;;
568;SDS011;269;48.884;9.192;2022-08-01T21:24:32;1.80;;;1.27;;
568;SDS011;269;48.884;9.192;2022-08-01T21:27:08;1.93;;;1.80;;
568;SDS011;269;48.884;9.192;2022-08-01T21:29:36;2.60;;;1.70;;
568;SDS011;269;48.884;9.192;2022-08-01T21:32:04;2.40;;;2.20;;
568;SDS011;269;48.884;9.192;2022-08-01T21:34:40;2.60;;;2.00;;
568;SDS011;269;48.884;9.192;2022-08-01T21:37:10;2.43;;;1.90;;
568;SDS011;269;48.884;9.192;2022-08-01T21:39:42;2.53;;;1.83;;
568;SDS011;269;48.884;9.192;2022-08-01T21:42:12;2.57;;;2.37;;
568;SDS011;269;48.884;9.192;2022-08-01T21:44:42;2.93;;;2.27;;
568;SDS011;269;48.884;9.192;2022-08-01T21:47:11;4.33;;;1.97;;
568;SDS011;269;48.884;9.192;2022-08-01T21:49:39;3.50;;;2.60;;
568;SDS011;269;48.884;9.192;2022-08-01T21:52:09;3.23;;;2.30;;
568;SDS011;269;48.884;9.192;2022-08-01T21:54:44;1.97;;;1.87;;
568;SDS011;269;48.884;9.192;2022-08-01T21:57:22;3.00;;;2.10;;
568;SDS011;269;48.884;9.192;2022-08-01T22:00:00;2.50;;;2.20;;
568;SDS011;269;48.884;9.192;2022-08-01T22:02:34;2.90;;;2.27;;
568;SDS011;269;48.884;9.192;2022-08-01T22:05:04;3.63;;;1.93;;
568;SDS011;269;48.884;9.192;2022-08-01T22:07:33;4.77;;;2.17;;
568;SDS011;269;48.884;9.192;2022-08-01T22:10:03;2.70;;;1.80;;
568;SDS011;269;48.884;9.192;2022-08-01T22:12:32;1.90;;;1.60;;
568;SDS011;269;48.884;9.192;2022-08-01T22:15:02;2.50;;;1.87;;
568;SDS011;269;48.884;9.192;2022-08-01T22:17:31;2.03;;;1.93;;
568;SDS011;269;48.884;9.192;2022-08-01T22:19:58;2.23;;;1.80;;
568;SDS011;269;48.884;9.192;2022-08-01T22:22:27;2.43;;;1.70;;
568;SDS011;269;48.884;9.192;2022-08-01T22:24:55;3.07;;;2.13;;
568;SDS011;269;48.884;9.192;2022-08-01T22:27:23;2.07;;;1.90;;
568;SDS011;269;48.884;9.192;2022-08-01T22:29:53;3.73;;;2.20;;
568;SDS011;269;48.884;9.192;2022-08-01T22:32:25;3.27;;;2.27;;
568;SDS011;269;48.884;9.192;2022-08-01T22:34:53;5.43;;;2.30;;
568;SDS011;269;48.884;9.192;2022-08-01T22:37:23;2.03;;;1.83;;
568;SDS011;269;48.884;9.192;2022-08-01T22:39:50;2.80;;;2.00;;
568;SDS011;269;48.884;9.192;2022-08-01T22:42:18;2.53;;;2.10;;
568;SDS011;269;48.884;9.192;2022-08-01T22:44:50;2.40;;;2.07;;
568;SDS011;269;48.884;9.192;2022-08-01T22:47:31;2.57;;;2.07;;
568;SDS011;269;48.884;9.192;2022-08-01T22:50:05;3.10;;;2.10;;
568;SDS011;269;48.884;9.192;2022-08-01T22:52:35;2.30;;;2.10;;
568;SDS011;269;48.884;9.192;2022-08-01T22:55:09;4.77;;;2.60;;
568;SDS011;269;48.884;9.192;2022-08-01T22:57:39;2.10;;;1.90;;
568;SDS011;269;48.884;9.192;2022-08-01T23:00:11;2.20;;;1.90;;
568;SDS011;269;48.884;9.192;2022-08-01T23:02:42;2.30;;;2.10;;
568;SDS011;269;48.884;9.192;2022-08-01T23:05:13;3.83;;;1.80;;
568;SDS011;269;48.884;9.192;2022-08-01T23:07:48;2.50;;;1.73;;
568;SDS011;269;48.884;9.192;2022-08-01T23:10:19;2.37;;;2.00;;
568;SDS011;269;48.884;9.192;2022-08-01T23:12:47;2.17;;;1.90;;
568;SDS011;269;48.884;9.192;2022-08-01T23:15:16;1.93;;;1.83;;
568;SDS011;269;48.884;9.192;2022-08-01T23:17:47;2.13;;;1.87;;
568;SDS011;269;48.884;9.192;2022-08-01T23:20:15;1.87;;;1.77;;
568;SDS011;269;48.884;9.192;2022-08-01T23:22:43;2.23;;;1.80;;
568;SDS011;269;48.884;9.192;2022-08-01T23:25:14;1.93;;;1.77;;
568;SDS011;269;48.884;9.192;2022-08-01T23:27:44;1.57;;;1.47;;
568;SDS011;269;48.884;9.192;2022-08-01T23:30:12;2.83;;;1.70;;
568;SDS011;269;48.884;9.192;2022-08-01T23:32:39;2.00;;;1.80;;
568;SDS011;269;48.884;9.192;2022-08-01T23:35:08;1.70;;;1.50;;
568;SDS011;269;48.884;9.192;2022-08-01T23:37:35;2.03;;;1.80;;
568;SDS011;269;48.884;9.192;2022-08-01T23:40:03;1.70;;;1.60;;
568;SDS011;269;48.884;9.192;2022-08-01T23:42:31;1.80;;;1.70;;
568;SDS011;269;48.884;9.192;2022-08-01T23:44:58;2.00;;;1.90;;
568;SDS011;269;48.884;9.192;2022-08-01T23:47:25;2.27;;;1.80;;
568;SDS011;269;48.884;9.192;2022-08-01T23:49:52;1.90;;;1.70;;
568;SDS011;269;48.884;9.192;2022-08-01T23:52:21;2.40;;;1.90;;
568;SDS011;269;48.884;9.192;2022-08-01T23:54:48;1.80;;;1.70;;
568;SDS011;269;48.884;9.192;2022-08-01T23:57:15;2.40;;;2.00;;
568;SDS011;269;48.884;9.192;2022-08-01T23:59:42;2.90;;;2.00;;
